メインページ
METAR-TAF:

METAR-TAF

空港 :

ソフィア, ブルガリア

ソフィア空港

緯度: 42-39N, 経度: 023-23E, 海抜: 586m

現時点の気象観測

当レポートは25分前の20:30(UTC)に作成
変向風 4kt
気温 -3°C
湿度 93%
気圧 1018 hPa
視程: 3000m

METAR: LBSF 112030Z VRB04KT 3000 BR NSC M03/M04 Q1018 NOSIG

時間: 22:55 (20:55 UTC)

予報

当レポートは3時間55分前の17:00(UTC)に作成
予報は11日の 18時(UTC)から 12日の 18時(UTC)まで有効
変向風 4kt
視程: 5000m
高度5000ftの千切れ雲あり
11日の 22時(UTC)から 12日の 08時(UTC)まで一時的に
視程: 1200m
高度700ftの千切れ雲あり
確率 30%
12日の 02時(UTC)から 12日の 08時(UTC)まで
視程: 0600m
高度400ftの千切れ雲あり
着氷性の霧
12日の 08時(UTC)から 12日の 10時(UTC)まで徐々に
南/南東の風 10kt

TAF: LBSF 111700Z 1118/1218 VRB04KT 5000 BR BKN050 TEMPO 1122/1208 1200 BR BKN007 PROB30 1202/1208 0600 FZFG BKN004 BECMG 1208/1210 15010KT

4,000以上の空港の気象観測と天気予報(METAR報とTAF報)

利用可能な観測所は地図上に黄色い丸と赤い丸で示す。

丸の上にカーソルを重ねると観測所名を参照できる。

次にクリックすると気象観測と天気予報を参照できる。

マップの切り替え:黒色「×」印の緑ボタンをクリックして拡大、「-」印の緑ボタンをクリックして縮小、緑色の三角印をクリックして隣りの地図に切り替え


METAR-TAF: